sensor_id;sensor_type;location;lat;lon;timestamp;temperature;humidity
11043;DHT22;5574;48.786;10.120;2023-02-03T00:01:22;4.90;99.90
11043;DHT22;5574;48.786;10.120;2023-02-03T00:03:49;4.90;99.90
11043;DHT22;5574;48.786;10.120;2023-02-03T00:06:16;4.90;99.90
11043;DHT22;5574;48.786;10.120;2023-02-03T00:08:43;4.90;99.90
11043;DHT22;5574;48.786;10.120;2023-02-03T00:11:10;4.90;99.90
11043;DHT22;5574;48.786;10.120;2023-02-03T00:13:36;4.90;99.90
11043;DHT22;5574;48.786;10.120;2023-02-03T00:16:03;4.90;99.90
11043;DHT22;5574;48.786;10.120;2023-02-03T00:18:33;4.90;99.90
11043;DHT22;5574;48.786;10.120;2023-02-03T00:20:59;4.90;99.90
11043;DHT22;5574;48.786;10.120;2023-02-03T00:23:26;4.90;99.90
11043;DHT22;5574;48.786;10.120;2023-02-03T00:25:56;4.90;99.90
11043;DHT22;5574;48.786;10.120;2023-02-03T00:28:23;4.90;99.90
11043;DHT22;5574;48.786;10.120;2023-02-03T00:30:52;4.90;99.90
11043;DHT22;5574;48.786;10.120;2023-02-03T00:33:19;4.90;99.90
11043;DHT22;5574;48.786;10.120;2023-02-03T00:35:47;4.90;99.90
11043;DHT22;5574;48.786;10.120;2023-02-03T00:38:14;4.90;99.90
11043;DHT22;5574;48.786;10.120;2023-02-03T00:40:41;5.00;99.90
11043;DHT22;5574;48.786;10.120;2023-02-03T00:43:07;5.00;99.90
11043;DHT22;5574;48.786;10.120;2023-02-03T00:45:34;5.00;99.90
11043;DHT22;5574;48.786;10.120;2023-02-03T00:48:01;5.10;99.90
11043;DHT22;5574;48.786;10.120;2023-02-03T00:50:27;5.10;99.90
11043;DHT22;5574;48.786;10.120;2023-02-03T00:52:55;5.00;99.90
11043;DHT22;5574;48.786;10.120;2023-02-03T00:55:22;5.10;99.90
11043;DHT22;5574;48.786;10.120;2023-02-03T00:57:48;5.10;99.90
11043;DHT22;5574;48.786;10.120;2023-02-03T01:00:16;5.10;99.90
11043;DHT22;5574;48.786;10.120;2023-02-03T01:02:43;5.10;99.90
11043;DHT22;5574;48.786;10.120;2023-02-03T01:05:10;5.10;99.90
11043;DHT22;5574;48.786;10.120;2023-02-03T01:07:37;5.10;99.90
11043;DHT22;5574;48.786;10.120;2023-02-03T01:10:06;5.10;99.90
11043;DHT22;5574;48.786;10.120;2023-02-03T01:12:33;5.10;99.90
11043;DHT22;5574;48.786;10.120;2023-02-03T01:15:00;5.10;99.90
11043;DHT22;5574;48.786;10.120;2023-02-03T01:17:26;5.10;99.90
11043;DHT22;5574;48.786;10.120;2023-02-03T01:19:53;5.00;99.90
11043;DHT22;5574;48.786;10.120;2023-02-03T01:22:20;5.10;99.90
11043;DHT22;5574;48.786;10.120;2023-02-03T01:24:47;5.10;99.90
11043;DHT22;5574;48.786;10.120;2023-02-03T01:27:15;5.10;99.90
11043;DHT22;5574;48.786;10.120;2023-02-03T01:29:41;5.10;99.90
11043;DHT22;5574;48.786;10.120;2023-02-03T01:32:08;5.10;99.90
11043;DHT22;5574;48.786;10.120;2023-02-03T01:34:35;5.00;99.90
11043;DHT22;5574;48.786;10.120;2023-02-03T01:37:01;5.10;99.90
11043;DHT22;5574;48.786;10.120;2023-02-03T01:39:28;5.10;99.90
11043;DHT22;5574;48.786;10.120;2023-02-03T01:41:55;5.10;99.90
11043;DHT22;5574;48.786;10.120;2023-02-03T01:44:43;5.10;99.90
11043;DHT22;5574;48.786;10.120;2023-02-03T01:47:15;5.10;99.90
11043;DHT22;5574;48.786;10.120;2023-02-03T01:49:46;5.10;99.90
11043;DHT22;5574;48.786;10.120;2023-02-03T01:52:14;5.10;99.90
11043;DHT22;5574;48.786;10.120;2023-02-03T01:54:44;5.10;99.90
11043;DHT22;5574;48.786;10.120;2023-02-03T01:57:15;5.10;99.90
11043;DHT22;5574;48.786;10.120;2023-02-03T01:59:47;5.10;99.90
11043;DHT22;5574;48.786;10.120;2023-02-03T02:02:14;5.10;99.90
11043;DHT22;5574;48.786;10.120;2023-02-03T02:04:48;5.00;99.90
11043;DHT22;5574;48.786;10.120;2023-02-03T02:07:16;5.00;99.90
11043;DHT22;5574;48.786;10.120;2023-02-03T02:09:43;5.00;99.90
11043;DHT22;5574;48.786;10.120;2023-02-03T02:12:11;5.00;99.90
11043;DHT22;5574;48.786;10.120;2023-02-03T02:14:38;5.00;99.90
11043;DHT22;5574;48.786;10.120;2023-02-03T02:17:11;5.00;99.90
11043;DHT22;5574;48.786;10.120;2023-02-03T02:19:57;5.00;99.90
11043;DHT22;5574;48.786;10.120;2023-02-03T02:22:32;5.00;99.90
11043;DHT22;5574;48.786;10.120;2023-02-03T02:25:28;5.00;99.90
11043;DHT22;5574;48.786;10.120;2023-02-03T02:31:40;4.90;99.90
11043;DHT22;5574;48.786;10.120;2023-02-03T02:34:16;4.90;99.90
11043;DHT22;5574;48.786;10.120;2023-02-03T02:36:53;4.90;99.90
11043;DHT22;5574;48.786;10.120;2023-02-03T02:39:37;4.90;99.90
11043;DHT22;5574;48.786;10.120;2023-02-03T02:42:07;4.90;99.90
11043;DHT22;5574;48.786;10.120;2023-02-03T02:44:42;4.90;99.90
11043;DHT22;5574;48.786;10.120;2023-02-03T02:47:16;4.90;99.90
11043;DHT22;5574;48.786;10.120;2023-02-03T02:49:47;4.90;99.90
11043;DHT22;5574;48.786;10.120;2023-02-03T02:52:17;4.90;99.90
11043;DHT22;5574;48.786;10.120;2023-02-03T02:54:48;4.90;99.90
11043;DHT22;5574;48.786;10.120;2023-02-03T02:57:18;4.90;99.90
11043;DHT22;5574;48.786;10.120;2023-02-03T02:59:46;4.90;99.90
11043;DHT22;5574;48.786;10.120;2023-02-03T03:02:14;4.90;99.90
11043;DHT22;5574;48.786;10.120;2023-02-03T03:04:43;4.90;99.90
11043;DHT22;5574;48.786;10.120;2023-02-03T03:07:15;4.90;99.90
11043;DHT22;5574;48.786;10.120;2023-02-03T03:09:46;4.90;99.90
11043;DHT22;5574;48.786;10.120;2023-02-03T03:12:16;4.90;99.90
11043;DHT22;5574;48.786;10.120;2023-02-03T03:14:47;4.90;99.90
11043;DHT22;5574;48.786;10.120;2023-02-03T03:17:19;5.00;99.90
11043;DHT22;5574;48.786;10.120;2023-02-03T03:19:51;5.00;99.90
11043;DHT22;5574;48.786;10.120;2023-02-03T03:22:23;4.90;99.90
11043;DHT22;5574;48.786;10.120;2023-02-03T03:24:56;4.90;99.90
11043;DHT22;5574;48.786;10.120;2023-02-03T03:27:27;4.90;99.90
11043;DHT22;5574;48.786;10.120;2023-02-03T03:29:57;5.00;99.90
11043;DHT22;5574;48.786;10.120;2023-02-03T03:32:26;5.00;99.90
11043;DHT22;5574;48.786;10.120;2023-02-03T03:34:55;5.00;99.90
11043;DHT22;5574;48.786;10.120;2023-02-03T03:37:27;5.00;99.90
11043;DHT22;5574;48.786;10.120;2023-02-03T03:39:59;5.00;99.90
11043;DHT22;5574;48.786;10.120;2023-02-03T03:42:31;5.10;99.90
11043;DHT22;5574;48.786;10.120;2023-02-03T03:45:01;5.00;99.90
11043;DHT22;5574;48.786;10.120;2023-02-03T03:47:34;5.00;99.90
11043;DHT22;5574;48.786;10.120;2023-02-03T03:50:06;5.10;99.90
11043;DHT22;5574;48.786;10.120;2023-02-03T03:52:36;5.10;99.90
11043;DHT22;5574;48.786;10.120;2023-02-03T03:55:07;5.10;99.90
11043;DHT22;5574;48.786;10.120;2023-02-03T03:57:37;5.10;99.90
11043;DHT22;5574;48.786;10.120;2023-02-03T04:00:07;5.10;99.90
11043;DHT22;5574;48.786;10.120;2023-02-03T04:02:38;5.10;99.90
11043;DHT22;5574;48.786;10.120;2023-02-03T04:05:07;5.10;99.90
11043;DHT22;5574;48.786;10.120;2023-02-03T04:07:41;5.10;99.90
11043;DHT22;5574;48.786;10.120;2023-02-03T04:10:15;5.20;99.90
11043;DHT22;5574;48.786;10.120;2023-02-03T04:12:43;5.20;99.90
11043;DHT22;5574;48.786;10.120;2023-02-03T04:15:10;5.20;99.90
11043;DHT22;5574;48.786;10.120;2023-02-03T04:17:38;5.20;99.90
11043;DHT22;5574;48.786;10.120;2023-02-03T04:20:05;5.20;99.90
11043;DHT22;5574;48.786;10.120;2023-02-03T04:22:32;5.20;99.90
11043;DHT22;5574;48.786;10.120;2023-02-03T04:24:58;5.20;99.90
11043;DHT22;5574;48.786;10.120;2023-02-03T04:27:26;5.20;99.90
11043;DHT22;5574;48.786;10.120;2023-02-03T04:29:52;5.20;99.90
11043;DHT22;5574;48.786;10.120;2023-02-03T04:32:19;5.20;99.90
11043;DHT22;5574;48.786;10.120;2023-02-03T04:34:47;5.20;99.90
11043;DHT22;5574;48.786;10.120;2023-02-03T04:37:14;5.10;99.90
11043;DHT22;5574;48.786;10.120;2023-02-03T04:39:40;5.10;99.90
11043;DHT22;5574;48.786;10.120;2023-02-03T04:42:07;5.10;99.90
11043;DHT22;5574;48.786;10.120;2023-02-03T04:44:34;5.10;99.90
11043;DHT22;5574;48.786;10.120;2023-02-03T04:47:00;5.10;99.90
11043;DHT22;5574;48.786;10.120;2023-02-03T04:49:27;5.10;99.90
11043;DHT22;5574;48.786;10.120;2023-02-03T04:51:55;5.10;99.90
11043;DHT22;5574;48.786;10.120;2023-02-03T04:54:22;5.10;99.90
11043;DHT22;5574;48.786;10.120;2023-02-03T04:56:48;5.10;99.90
11043;DHT22;5574;48.786;10.120;2023-02-03T04:59:15;5.10;99.90
11043;DHT22;5574;48.786;10.120;2023-02-03T05:01:42;5.00;99.90
11043;DHT22;5574;48.786;10.120;2023-02-03T05:04:08;5.10;99.90
11043;DHT22;5574;48.786;10.120;2023-02-03T05:06:35;5.10;99.90
11043;DHT22;5574;48.786;10.120;2023-02-03T05:09:03;5.10;99.90
11043;DHT22;5574;48.786;10.120;2023-02-03T05:11:30;5.10;99.90
11043;DHT22;5574;48.786;10.120;2023-02-03T05:13:57;5.10;99.90
11043;DHT22;5574;48.786;10.120;2023-02-03T05:16:23;5.00;99.90
11043;DHT22;5574;48.786;10.120;2023-02-03T05:18:50;5.00;99.90
11043;DHT22;5574;48.786;10.120;2023-02-03T05:21:17;5.00;99.90
11043;DHT22;5574;48.786;10.120;2023-02-03T05:23:43;5.00;99.90
11043;DHT22;5574;48.786;10.120;2023-02-03T05:26:11;5.00;99.90
11043;DHT22;5574;48.786;10.120;2023-02-03T05:28:38;5.00;99.90
11043;DHT22;5574;48.786;10.120;2023-02-03T05:31:05;5.00;99.90
11043;DHT22;5574;48.786;10.120;2023-02-03T05:33:31;5.10;99.90
11043;DHT22;5574;48.786;10.120;2023-02-03T05:35:58;5.10;99.90
11043;DHT22;5574;48.786;10.120;2023-02-03T05:38:25;5.10;99.90
11043;DHT22;5574;48.786;10.120;2023-02-03T05:40:52;5.10;99.90
11043;DHT22;5574;48.786;10.120;2023-02-03T05:43:38;5.10;99.90
11043;DHT22;5574;48.786;10.120;2023-02-03T05:46:05;5.10;99.90
11043;DHT22;5574;48.786;10.120;2023-02-03T05:48:33;5.20;99.90
11043;DHT22;5574;48.786;10.120;2023-02-03T05:50:59;5.10;99.90
11043;DHT22;5574;48.786;10.120;2023-02-03T05:53:26;5.10;99.90
11043;DHT22;5574;48.786;10.120;2023-02-03T05:55:53;5.20;99.90
11043;DHT22;5574;48.786;10.120;2023-02-03T05:58:20;5.10;99.90
11043;DHT22;5574;48.786;10.120;2023-02-03T06:00:48;5.20;99.90
11043;DHT22;5574;48.786;10.120;2023-02-03T06:03:15;5.20;99.90
11043;DHT22;5574;48.786;10.120;2023-02-03T06:05:42;5.10;99.90
11043;DHT22;5574;48.786;10.120;2023-02-03T06:08:09;5.10;99.90
11043;DHT22;5574;48.786;10.120;2023-02-03T06:10:36;5.10;99.90
11043;DHT22;5574;48.786;10.120;2023-02-03T06:13:10;5.10;99.90
11043;DHT22;5574;48.786;10.120;2023-02-03T06:15:37;5.10;99.90
11043;DHT22;5574;48.786;10.120;2023-02-03T06:18:05;5.10;99.90
11043;DHT22;5574;48.786;10.120;2023-02-03T06:20:32;5.10;99.90
11043;DHT22;5574;48.786;10.120;2023-02-03T06:22:59;5.10;99.90
11043;DHT22;5574;48.786;10.120;2023-02-03T06:25:25;5.20;99.90
11043;DHT22;5574;48.786;10.120;2023-02-03T06:27:52;5.20;99.90
11043;DHT22;5574;48.786;10.120;2023-02-03T06:30:19;5.20;99.90
11043;DHT22;5574;48.786;10.120;2023-02-03T06:32:48;5.20;99.90
11043;DHT22;5574;48.786;10.120;2023-02-03T06:35:16;5.10;99.90
11043;DHT22;5574;48.786;10.120;2023-02-03T06:37:43;5.20;99.90
11043;DHT22;5574;48.786;10.120;2023-02-03T06:40:11;5.20;99.90
11043;DHT22;5574;48.786;10.120;2023-02-03T06:42:38;5.20;99.90
11043;DHT22;5574;48.786;10.120;2023-02-03T06:45:05;5.20;99.90
11043;DHT22;5574;48.786;10.120;2023-02-03T06:47:32;5.20;99.90
11043;DHT22;5574;48.786;10.120;2023-02-03T06:50:00;5.20;99.90
11043;DHT22;5574;48.786;10.120;2023-02-03T06:52:28;5.20;99.90
11043;DHT22;5574;48.786;10.120;2023-02-03T06:54:54;5.20;99.90
11043;DHT22;5574;48.786;10.120;2023-02-03T06:57:21;5.20;99.90
11043;DHT22;5574;48.786;10.120;2023-02-03T06:59:48;5.20;99.90
11043;DHT22;5574;48.786;10.120;2023-02-03T07:02:15;5.20;99.90
11043;DHT22;5574;48.786;10.120;2023-02-03T07:04:41;5.20;99.90
11043;DHT22;5574;48.786;10.120;2023-02-03T07:07:09;5.20;99.90
11043;DHT22;5574;48.786;10.120;2023-02-03T07:09:37;5.20;99.90
11043;DHT22;5574;48.786;10.120;2023-02-03T07:12:05;5.20;99.90
11043;DHT22;5574;48.786;10.120;2023-02-03T07:14:31;5.10;99.90
11043;DHT22;5574;48.786;10.120;2023-02-03T07:17:00;5.10;99.90
11043;DHT22;5574;48.786;10.120;2023-02-03T07:19:26;5.10;99.90
11043;DHT22;5574;48.786;10.120;2023-02-03T07:21:53;5.10;99.90
11043;DHT22;5574;48.786;10.120;2023-02-03T07:24:20;5.00;99.90
11043;DHT22;5574;48.786;10.120;2023-02-03T07:26:48;5.00;99.90
11043;DHT22;5574;48.786;10.120;2023-02-03T07:29:14;5.00;99.90
11043;DHT22;5574;48.786;10.120;2023-02-03T07:31:41;5.00;99.90
11043;DHT22;5574;48.786;10.120;2023-02-03T07:34:08;5.00;99.90
11043;DHT22;5574;48.786;10.120;2023-02-03T07:36:34;5.00;99.90
11043;DHT22;5574;48.786;10.120;2023-02-03T07:39:01;5.00;99.90
11043;DHT22;5574;48.786;10.120;2023-02-03T07:41:28;4.90;99.90
11043;DHT22;5574;48.786;10.120;2023-02-03T07:43:56;5.00;99.90
11043;DHT22;5574;48.786;10.120;2023-02-03T07:46:22;4.90;99.90
11043;DHT22;5574;48.786;10.120;2023-02-03T07:48:50;5.00;99.90
11043;DHT22;5574;48.786;10.120;2023-02-03T07:51:16;5.00;99.90
11043;DHT22;5574;48.786;10.120;2023-02-03T07:53:44;5.00;99.90
11043;DHT22;5574;48.786;10.120;2023-02-03T07:56:11;5.00;99.90
11043;DHT22;5574;48.786;10.120;2023-02-03T07:58:38;5.10;99.90
11043;DHT22;5574;48.786;10.120;2023-02-03T08:01:11;5.10;99.90
11043;DHT22;5574;48.786;10.120;2023-02-03T08:03:38;5.10;99.90
11043;DHT22;5574;48.786;10.120;2023-02-03T08:06:05;5.20;99.90
11043;DHT22;5574;48.786;10.120;2023-02-03T08:08:32;5.20;99.90
11043;DHT22;5574;48.786;10.120;2023-02-03T08:10:59;5.20;99.90
11043;DHT22;5574;48.786;10.120;2023-02-03T08:13:25;5.20;99.90
11043;DHT22;5574;48.786;10.120;2023-02-03T08:15:52;5.20;99.90
11043;DHT22;5574;48.786;10.120;2023-02-03T08:18:20;5.30;99.90
11043;DHT22;5574;48.786;10.120;2023-02-03T08:20:48;5.30;99.90
11043;DHT22;5574;48.786;10.120;2023-02-03T08:23:15;5.30;99.90
11043;DHT22;5574;48.786;10.120;2023-02-03T08:25:42;5.30;99.90
11043;DHT22;5574;48.786;10.120;2023-02-03T08:28:09;5.30;99.90
11043;DHT22;5574;48.786;10.120;2023-02-03T08:30:35;5.30;99.90
11043;DHT22;5574;48.786;10.120;2023-02-03T08:33:02;5.30;99.90
11043;DHT22;5574;48.786;10.120;2023-02-03T08:35:30;5.30;99.90
11043;DHT22;5574;48.786;10.120;2023-02-03T08:37:57;5.20;99.90
11043;DHT22;5574;48.786;10.120;2023-02-03T08:40:24;5.30;99.90
11043;DHT22;5574;48.786;10.120;2023-02-03T08:42:50;5.20;99.90
11043;DHT22;5574;48.786;10.120;2023-02-03T08:45:17;5.20;99.90
11043;DHT22;5574;48.786;10.120;2023-02-03T08:47:44;5.20;99.90
11043;DHT22;5574;48.786;10.120;2023-02-03T08:50:10;5.20;99.90
11043;DHT22;5574;48.786;10.120;2023-02-03T08:52:39;5.20;99.90
11043;DHT22;5574;48.786;10.120;2023-02-03T08:55:06;5.20;99.90
11043;DHT22;5574;48.786;10.120;2023-02-03T08:57:33;5.30;99.90
11043;DHT22;5574;48.786;10.120;2023-02-03T09:00:00;5.30;99.90
11043;DHT22;5574;48.786;10.120;2023-02-03T09:02:27;5.30;99.90
11043;DHT22;5574;48.786;10.120;2023-02-03T09:04:54;5.30;99.90
11043;DHT22;5574;48.786;10.120;2023-02-03T09:07:20;5.20;99.90
11043;DHT22;5574;48.786;10.120;2023-02-03T09:09:49;5.30;99.90
11043;DHT22;5574;48.786;10.120;2023-02-03T09:12:15;5.40;99.90
11043;DHT22;5574;48.786;10.120;2023-02-03T09:14:42;5.30;99.90
11043;DHT22;5574;48.786;10.120;2023-02-03T09:17:09;5.60;99.90
11043;DHT22;5574;48.786;10.120;2023-02-03T09:19:35;5.80;99.90
11043;DHT22;5574;48.786;10.120;2023-02-03T09:22:03;6.10;99.90
11043;DHT22;5574;48.786;10.120;2023-02-03T09:24:30;6.30;99.90
11043;DHT22;5574;48.786;10.120;2023-02-03T09:26:58;6.40;99.90
11043;DHT22;5574;48.786;10.120;2023-02-03T09:29:25;6.50;99.90
11043;DHT22;5574;48.786;10.120;2023-02-03T09:31:52;6.50;99.90
11043;DHT22;5574;48.786;10.120;2023-02-03T09:34:19;6.50;99.90
11043;DHT22;5574;48.786;10.120;2023-02-03T09:36:46;6.50;99.90
11043;DHT22;5574;48.786;10.120;2023-02-03T09:39:13;6.50;99.90
11043;DHT22;5574;48.786;10.120;2023-02-03T09:41:55;6.50;99.90
11043;DHT22;5574;48.786;10.120;2023-02-03T09:44:32;6.60;99.90
11043;DHT22;5574;48.786;10.120;2023-02-03T09:47:04;6.70;99.90
11043;DHT22;5574;48.786;10.120;2023-02-03T09:49:38;6.80;99.90
11043;DHT22;5574;48.786;10.120;2023-02-03T09:52:10;6.80;99.90
11043;DHT22;5574;48.786;10.120;2023-02-03T09:54:43;6.80;99.90
11043;DHT22;5574;48.786;10.120;2023-02-03T09:57:15;6.80;99.90
11043;DHT22;5574;48.786;10.120;2023-02-03T09:59:44;6.80;99.90
11043;DHT22;5574;48.786;10.120;2023-02-03T10:02:29;6.80;99.90
11043;DHT22;5574;48.786;10.120;2023-02-03T10:05:03;6.90;99.90
11043;DHT22;5574;48.786;10.120;2023-02-03T10:07:39;7.00;99.90
11043;DHT22;5574;48.786;10.120;2023-02-03T10:10:16;6.90;99.90
11043;DHT22;5574;48.786;10.120;2023-02-03T10:12:59;6.90;99.90
11043;DHT22;5574;48.786;10.120;2023-02-03T10:15:43;6.90;99.90
11043;DHT22;5574;48.786;10.120;2023-02-03T10:18:17;6.90;99.90
11043;DHT22;5574;48.786;10.120;2023-02-03T10:20:46;6.90;99.90
11043;DHT22;5574;48.786;10.120;2023-02-03T10:23:18;6.90;99.90
11043;DHT22;5574;48.786;10.120;2023-02-03T10:25:50;6.90;99.90
11043;DHT22;5574;48.786;10.120;2023-02-03T10:28:21;6.90;99.90
11043;DHT22;5574;48.786;10.120;2023-02-03T10:30:54;6.90;99.90
11043;DHT22;5574;48.786;10.120;2023-02-03T10:33:24;6.90;99.90
11043;DHT22;5574;48.786;10.120;2023-02-03T10:35:53;6.90;99.90
11043;DHT22;5574;48.786;10.120;2023-02-03T10:38:32;7.00;99.90
11043;DHT22;5574;48.786;10.120;2023-02-03T10:41:01;7.00;99.90
11043;DHT22;5574;48.786;10.120;2023-02-03T10:43:29;7.10;99.90
11043;DHT22;5574;48.786;10.120;2023-02-03T10:46:19;7.00;99.90
11043;DHT22;5574;48.786;10.120;2023-02-03T10:48:47;7.00;99.90
11043;DHT22;5574;48.786;10.120;2023-02-03T10:51:19;7.00;99.90
11043;DHT22;5574;48.786;10.120;2023-02-03T10:53:46;7.00;99.90
11043;DHT22;5574;48.786;10.120;2023-02-03T10:56:14;7.00;99.90
11043;DHT22;5574;48.786;10.120;2023-02-03T10:58:48;7.00;99.90
11043;DHT22;5574;48.786;10.120;2023-02-03T11:01:18;7.00;99.90
11043;DHT22;5574;48.786;10.120;2023-02-03T11:03:56;7.10;99.90
11043;DHT22;5574;48.786;10.120;2023-02-03T11:06:23;7.10;99.90
11043;DHT22;5574;48.786;10.120;2023-02-03T11:08:50;7.10;99.90
11043;DHT22;5574;48.786;10.120;2023-02-03T11:11:20;7.10;99.90
11043;DHT22;5574;48.786;10.120;2023-02-03T11:13:52;7.10;99.90
11043;DHT22;5574;48.786;10.120;2023-02-03T11:16:20;7.00;99.90
11043;DHT22;5574;48.786;10.120;2023-02-03T11:18:55;7.00;99.90
11043;DHT22;5574;48.786;10.120;2023-02-03T11:21:24;7.10;99.90
11043;DHT22;5574;48.786;10.120;2023-02-03T11:23:55;7.10;99.90
11043;DHT22;5574;48.786;10.120;2023-02-03T11:26:25;7.10;99.90
11043;DHT22;5574;48.786;10.120;2023-02-03T11:28:55;7.10;99.90
11043;DHT22;5574;48.786;10.120;2023-02-03T11:31:25;7.10;99.90
11043;DHT22;5574;48.786;10.120;2023-02-03T11:33:56;7.10;99.90
11043;DHT22;5574;48.786;10.120;2023-02-03T11:36:27;7.10;99.90
11043;DHT22;5574;48.786;10.120;2023-02-03T11:39:16;7.10;99.90
11043;DHT22;5574;48.786;10.120;2023-02-03T11:41:44;7.10;99.90
11043;DHT22;5574;48.786;10.120;2023-02-03T11:44:16;7.10;99.90
11043;DHT22;5574;48.786;10.120;2023-02-03T11:46:45;7.10;99.90
11043;DHT22;5574;48.786;10.120;2023-02-03T11:49:32;7.10;99.90
11043;DHT22;5574;48.786;10.120;2023-02-03T11:52:09;7.10;99.90
11043;DHT22;5574;48.786;10.120;2023-02-03T11:54:45;7.10;99.90
11043;DHT22;5574;48.786;10.120;2023-02-03T11:57:24;7.10;99.90
11043;DHT22;5574;48.786;10.120;2023-02-03T12:00:02;7.20;99.90
11043;DHT22;5574;48.786;10.120;2023-02-03T12:05:57;7.30;99.90
11043;DHT22;5574;48.786;10.120;2023-02-03T12:08:33;7.30;99.90
11043;DHT22;5574;48.786;10.120;2023-02-03T12:11:10;7.30;99.90
11043;DHT22;5574;48.786;10.120;2023-02-03T12:14:09;7.30;99.90
11043;DHT22;5574;48.786;10.120;2023-02-03T12:16:56;7.40;99.90
11043;DHT22;5574;48.786;10.120;2023-02-03T12:19:34;7.40;99.90
11043;DHT22;5574;48.786;10.120;2023-02-03T12:22:10;7.30;99.90
11043;DHT22;5574;48.786;10.120;2023-02-03T12:24:46;7.30;99.90
11043;DHT22;5574;48.786;10.120;2023-02-03T12:27:25;7.30;99.90
11043;DHT22;5574;48.786;10.120;2023-02-03T12:29:58;7.30;99.90
11043;DHT22;5574;48.786;10.120;2023-02-03T12:32:30;7.20;99.90
11043;DHT22;5574;48.786;10.120;2023-02-03T12:35:10;7.20;99.90
11043;DHT22;5574;48.786;10.120;2023-02-03T12:37:43;7.10;99.90
11043;DHT22;5574;48.786;10.120;2023-02-03T12:40:15;7.10;99.90
11043;DHT22;5574;48.786;10.120;2023-02-03T12:42:48;7.00;99.90
11043;DHT22;5574;48.786;10.120;2023-02-03T12:45:19;7.00;99.90
11043;DHT22;5574;48.786;10.120;2023-02-03T12:47:51;7.00;99.90
11043;DHT22;5574;48.786;10.120;2023-02-03T12:50:28;7.00;99.90
11043;DHT22;5574;48.786;10.120;2023-02-03T12:52:59;7.10;99.90
11043;DHT22;5574;48.786;10.120;2023-02-03T12:55:31;7.10;99.90
11043;DHT22;5574;48.786;10.120;2023-02-03T12:58:03;7.10;99.90
11043;DHT22;5574;48.786;10.120;2023-02-03T13:00:36;7.10;99.90
11043;DHT22;5574;48.786;10.120;2023-02-03T13:03:11;7.10;99.90
11043;DHT22;5574;48.786;10.120;2023-02-03T13:05:45;7.10;99.90
11043;DHT22;5574;48.786;10.120;2023-02-03T13:08:21;7.10;99.90
11043;DHT22;5574;48.786;10.120;2023-02-03T13:10:51;7.10;99.90
11043;DHT22;5574;48.786;10.120;2023-02-03T13:13:24;7.10;99.90
11043;DHT22;5574;48.786;10.120;2023-02-03T13:15:54;7.10;99.90
11043;DHT22;5574;48.786;10.120;2023-02-03T13:18:25;7.10;99.90
11043;DHT22;5574;48.786;10.120;2023-02-03T13:20:55;7.10;99.90
11043;DHT22;5574;48.786;10.120;2023-02-03T13:23:22;7.10;99.90
11043;DHT22;5574;48.786;10.120;2023-02-03T13:29:10;7.10;99.90
11043;DHT22;5574;48.786;10.120;2023-02-03T13:31:48;7.10;99.90
11043;DHT22;5574;48.786;10.120;2023-02-03T13:34:37;7.10;99.90
11043;DHT22;5574;48.786;10.120;2023-02-03T13:40:26;7.00;99.90
11043;DHT22;5574;48.786;10.120;2023-02-03T13:42:56;7.00;99.90
11043;DHT22;5574;48.786;10.120;2023-02-03T13:45:27;7.00;99.90
11043;DHT22;5574;48.786;10.120;2023-02-03T13:47:57;7.00;99.90
11043;DHT22;5574;48.786;10.120;2023-02-03T13:50:28;7.00;99.90
11043;DHT22;5574;48.786;10.120;2023-02-03T13:52:59;7.00;99.90
11043;DHT22;5574;48.786;10.120;2023-02-03T13:55:38;7.00;99.90
11043;DHT22;5574;48.786;10.120;2023-02-03T13:58:17;6.90;99.90
11043;DHT22;5574;48.786;10.120;2023-02-03T14:01:01;6.90;99.90
11043;DHT22;5574;48.786;10.120;2023-02-03T14:03:49;6.90;99.90
11043;DHT22;5574;48.786;10.120;2023-02-03T14:09:47;6.90;99.90
11043;DHT22;5574;48.786;10.120;2023-02-03T14:12:33;6.80;99.90
11043;DHT22;5574;48.786;10.120;2023-02-03T14:23:57;6.80;99.90
11043;DHT22;5574;48.786;10.120;2023-02-03T14:26:33;6.80;99.90
11043;DHT22;5574;48.786;10.120;2023-02-03T14:29:03;6.80;99.90
11043;DHT22;5574;48.786;10.120;2023-02-03T14:31:31;6.80;99.90
11043;DHT22;5574;48.786;10.120;2023-02-03T14:34:17;6.80;99.90
11043;DHT22;5574;48.786;10.120;2023-02-03T14:36:48;6.80;99.90
11043;DHT22;5574;48.786;10.120;2023-02-03T14:43:03;6.60;99.90
11043;DHT22;5574;48.786;10.120;2023-02-03T14:46:10;6.60;99.90
11043;DHT22;5574;48.786;10.120;2023-02-03T14:48:48;6.50;99.90
11043;DHT22;5574;48.786;10.120;2023-02-03T14:51:26;6.50;99.90
11043;DHT22;5574;48.786;10.120;2023-02-03T14:54:14;6.50;99.90
11043;DHT22;5574;48.786;10.120;2023-02-03T14:56:46;6.50;99.90
11043;DHT22;5574;48.786;10.120;2023-02-03T14:59:36;6.50;99.90
11043;DHT22;5574;48.786;10.120;2023-02-03T15:02:11;6.50;99.90
11043;DHT22;5574;48.786;10.120;2023-02-03T15:04:39;6.50;99.90
11043;DHT22;5574;48.786;10.120;2023-02-03T15:07:05;6.40;99.90
11043;DHT22;5574;48.786;10.120;2023-02-03T15:09:37;6.50;99.90
11043;DHT22;5574;48.786;10.120;2023-02-03T15:12:16;6.50;99.90
11043;DHT22;5574;48.786;10.120;2023-02-03T15:14:44;6.50;99.90
11043;DHT22;5574;48.786;10.120;2023-02-03T15:17:12;6.50;99.90
11043;DHT22;5574;48.786;10.120;2023-02-03T15:19:44;6.50;99.90
11043;DHT22;5574;48.786;10.120;2023-02-03T15:22:21;6.50;99.90
11043;DHT22;5574;48.786;10.120;2023-02-03T15:24:49;6.50;99.90
11043;DHT22;5574;48.786;10.120;2023-02-03T15:27:21;6.50;99.90
11043;DHT22;5574;48.786;10.120;2023-02-03T15:29:49;6.50;99.90
11043;DHT22;5574;48.786;10.120;2023-02-03T15:32:18;6.60;99.90
11043;DHT22;5574;48.786;10.120;2023-02-03T15:34:47;6.60;99.90
11043;DHT22;5574;48.786;10.120;2023-02-03T15:37:17;6.50;99.90
11043;DHT22;5574;48.786;10.120;2023-02-03T15:39:59;6.50;99.90
11043;DHT22;5574;48.786;10.120;2023-02-03T15:42:30;6.50;99.90
11043;DHT22;5574;48.786;10.120;2023-02-03T15:45:03;6.50;99.90
11043;DHT22;5574;48.786;10.120;2023-02-03T15:47:33;6.40;99.90
11043;DHT22;5574;48.786;10.120;2023-02-03T15:50:21;6.50;99.90
11043;DHT22;5574;48.786;10.120;2023-02-03T15:52:51;6.40;99.90
11043;DHT22;5574;48.786;10.120;2023-02-03T15:55:26;6.40;99.90
11043;DHT22;5574;48.786;10.120;2023-02-03T15:57:54;6.40;99.90
11043;DHT22;5574;48.786;10.120;2023-02-03T16:00:40;6.40;99.90
11043;DHT22;5574;48.786;10.120;2023-02-03T16:03:16;6.40;99.90
11043;DHT22;5574;48.786;10.120;2023-02-03T16:05:46;6.40;99.90
11043;DHT22;5574;48.786;10.120;2023-02-03T16:08:33;6.40;99.90
11043;DHT22;5574;48.786;10.120;2023-02-03T16:11:01;6.40;99.90
11043;DHT22;5574;48.786;10.120;2023-02-03T16:13:28;6.40;99.90
11043;DHT22;5574;48.786;10.120;2023-02-03T16:16:03;6.40;99.90
11043;DHT22;5574;48.786;10.120;2023-02-03T16:18:33;6.40;99.90
11043;DHT22;5574;48.786;10.120;2023-02-03T16:21:01;6.40;99.90
11043;DHT22;5574;48.786;10.120;2023-02-03T16:23:28;6.40;99.90
11043;DHT22;5574;48.786;10.120;2023-02-03T16:26:03;6.40;99.90
11043;DHT22;5574;48.786;10.120;2023-02-03T16:28:30;6.40;99.90
11043;DHT22;5574;48.786;10.120;2023-02-03T16:31:17;6.50;99.90
11043;DHT22;5574;48.786;10.120;2023-02-03T16:34:12;6.40;99.90
11043;DHT22;5574;48.786;10.120;2023-02-03T16:36:56;6.50;99.90